sensor_id;sensor_type;location;lat;lon;timestamp;temperature;humidity
53599;DHT22;39485;45.702;11.364;2023-08-01T00:00:01;21.90;99.90
53599;DHT22;39485;45.702;11.364;2023-08-01T00:02:28;21.90;99.90
53599;DHT22;39485;45.702;11.364;2023-08-01T00:04:54;21.90;99.90
53599;DHT22;39485;45.702;11.364;2023-08-01T00:07:19;21.90;99.90
53599;DHT22;39485;45.702;11.364;2023-08-01T00:09:45;21.90;99.90
53599;DHT22;39485;45.702;11.364;2023-08-01T00:12:11;21.80;99.90
53599;DHT22;39485;45.702;11.364;2023-08-01T00:14:36;21.90;99.90
53599;DHT22;39485;45.702;11.364;2023-08-01T00:17:02;21.80;99.90
53599;DHT22;39485;45.702;11.364;2023-08-01T00:19:28;21.80;99.90
53599;DHT22;39485;45.702;11.364;2023-08-01T00:21:54;21.80;99.90
53599;DHT22;39485;45.702;11.364;2023-08-01T00:24:20;21.80;99.90
53599;DHT22;39485;45.702;11.364;2023-08-01T00:26:45;21.80;99.90
53599;DHT22;39485;45.702;11.364;2023-08-01T00:29:12;21.80;99.90
53599;DHT22;39485;45.702;11.364;2023-08-01T00:31:37;21.80;99.90
53599;DHT22;39485;45.702;11.364;2023-08-01T00:34:03;21.80;99.90
53599;DHT22;39485;45.702;11.364;2023-08-01T00:36:29;21.80;99.90
53599;DHT22;39485;45.702;11.364;2023-08-01T00:38:54;21.80;99.90
53599;DHT22;39485;45.702;11.364;2023-08-01T00:41:20;21.70;99.90
53599;DHT22;39485;45.702;11.364;2023-08-01T00:43:46;21.70;99.90
53599;DHT22;39485;45.702;11.364;2023-08-01T00:46:12;21.70;99.90
53599;DHT22;39485;45.702;11.364;2023-08-01T00:48:38;21.70;99.90
53599;DHT22;39485;45.702;11.364;2023-08-01T00:51:05;21.70;99.90
53599;DHT22;39485;45.702;11.364;2023-08-01T00:53:31;21.70;99.90
53599;DHT22;39485;45.702;11.364;2023-08-01T00:55:58;21.70;99.90
53599;DHT22;39485;45.702;11.364;2023-08-01T00:58:24;21.70;99.90
53599;DHT22;39485;45.702;11.364;2023-08-01T01:00:50;21.70;99.90
53599;DHT22;39485;45.702;11.364;2023-08-01T01:03:17;21.60;99.90
53599;DHT22;39485;45.702;11.364;2023-08-01T01:06:09;21.60;99.90
53599;DHT22;39485;45.702;11.364;2023-08-01T01:08:35;21.60;99.90
53599;DHT22;39485;45.702;11.364;2023-08-01T01:11:01;21.70;99.90
53599;DHT22;39485;45.702;11.364;2023-08-01T01:13:26;21.60;99.90
53599;DHT22;39485;45.702;11.364;2023-08-01T01:15:52;21.60;99.90
53599;DHT22;39485;45.702;11.364;2023-08-01T01:18:18;21.60;99.90
53599;DHT22;39485;45.702;11.364;2023-08-01T01:20:43;21.60;99.90
53599;DHT22;39485;45.702;11.364;2023-08-01T01:25:42;21.60;99.90
53599;DHT22;39485;45.702;11.364;2023-08-01T01:28:08;21.70;99.90
53599;DHT22;39485;45.702;11.364;2023-08-01T01:30:35;21.70;99.90
53599;DHT22;39485;45.702;11.364;2023-08-01T01:33:02;21.70;99.90
53599;DHT22;39485;45.702;11.364;2023-08-01T01:35:29;21.70;99.90
53599;DHT22;39485;45.702;11.364;2023-08-01T01:37:55;21.70;99.90
53599;DHT22;39485;45.702;11.364;2023-08-01T01:40:21;21.70;99.90
53599;DHT22;39485;45.702;11.364;2023-08-01T01:42:46;21.70;99.90
53599;DHT22;39485;45.702;11.364;2023-08-01T01:45:13;21.70;99.90
53599;DHT22;39485;45.702;11.364;2023-08-01T01:47:39;21.70;99.90
53599;DHT22;39485;45.702;11.364;2023-08-01T01:50:05;21.70;99.90
53599;DHT22;39485;45.702;11.364;2023-08-01T01:52:31;21.70;99.90
53599;DHT22;39485;45.702;11.364;2023-08-01T01:54:58;21.70;99.90
53599;DHT22;39485;45.702;11.364;2023-08-01T01:57:24;21.70;99.90
53599;DHT22;39485;45.702;11.364;2023-08-01T01:59:49;21.70;99.90
53599;DHT22;39485;45.702;11.364;2023-08-01T02:02:15;21.70;99.90
53599;DHT22;39485;45.702;11.364;2023-08-01T02:04:41;21.70;99.90
53599;DHT22;39485;45.702;11.364;2023-08-01T02:07:06;21.60;99.90
53599;DHT22;39485;45.702;11.364;2023-08-01T02:09:32;21.60;99.90
53599;DHT22;39485;45.702;11.364;2023-08-01T02:11:58;21.60;99.90
53599;DHT22;39485;45.702;11.364;2023-08-01T02:14:24;21.60;99.90
53599;DHT22;39485;45.702;11.364;2023-08-01T02:16:49;21.50;99.90
53599;DHT22;39485;45.702;11.364;2023-08-01T02:19:15;21.50;99.90
53599;DHT22;39485;45.702;11.364;2023-08-01T02:21:40;21.50;99.90
53599;DHT22;39485;45.702;11.364;2023-08-01T02:24:06;21.50;99.90
53599;DHT22;39485;45.702;11.364;2023-08-01T02:26:32;21.50;99.90
53599;DHT22;39485;45.702;11.364;2023-08-01T02:28:57;21.50;99.90
53599;DHT22;39485;45.702;11.364;2023-08-01T02:31:23;21.50;99.90
53599;DHT22;39485;45.702;11.364;2023-08-01T02:33:48;21.40;99.90
53599;DHT22;39485;45.702;11.364;2023-08-01T02:36:15;21.40;99.90
53599;DHT22;39485;45.702;11.364;2023-08-01T02:38:40;21.40;99.90
53599;DHT22;39485;45.702;11.364;2023-08-01T02:41:06;21.40;99.90
53599;DHT22;39485;45.702;11.364;2023-08-01T02:43:31;21.40;99.90
53599;DHT22;39485;45.702;11.364;2023-08-01T02:45:57;21.40;99.90
53599;DHT22;39485;45.702;11.364;2023-08-01T02:48:25;21.40;99.90
53599;DHT22;39485;45.702;11.364;2023-08-01T02:50:50;21.40;99.90
53599;DHT22;39485;45.702;11.364;2023-08-01T02:53:16;21.40;99.90
53599;DHT22;39485;45.702;11.364;2023-08-01T02:55:42;21.40;99.90
53599;DHT22;39485;45.702;11.364;2023-08-01T02:58:08;21.30;99.90
53599;DHT22;39485;45.702;11.364;2023-08-01T03:00:38;21.40;99.90
53599;DHT22;39485;45.702;11.364;2023-08-01T03:03:04;21.40;99.90
53599;DHT22;39485;45.702;11.364;2023-08-01T03:05:29;21.40;99.90
53599;DHT22;39485;45.702;11.364;2023-08-01T03:07:55;21.40;99.90
53599;DHT22;39485;45.702;11.364;2023-08-01T03:10:21;21.40;99.90
53599;DHT22;39485;45.702;11.364;2023-08-01T03:12:47;21.40;99.90
53599;DHT22;39485;45.702;11.364;2023-08-01T03:15:12;21.40;99.90
53599;DHT22;39485;45.702;11.364;2023-08-01T03:17:38;21.40;99.90
53599;DHT22;39485;45.702;11.364;2023-08-01T03:20:04;21.40;99.90
53599;DHT22;39485;45.702;11.364;2023-08-01T03:22:37;21.40;99.90
53599;DHT22;39485;45.702;11.364;2023-08-01T03:25:03;21.40;99.90
53599;DHT22;39485;45.702;11.364;2023-08-01T03:27:33;21.40;99.90
53599;DHT22;39485;45.702;11.364;2023-08-01T03:29:58;21.40;99.90
53599;DHT22;39485;45.702;11.364;2023-08-01T03:32:24;21.40;99.90
53599;DHT22;39485;45.702;11.364;2023-08-01T03:34:50;21.40;99.90
53599;DHT22;39485;45.702;11.364;2023-08-01T03:37:16;21.40;99.90
53599;DHT22;39485;45.702;11.364;2023-08-01T03:39:42;21.50;99.90
53599;DHT22;39485;45.702;11.364;2023-08-01T03:42:07;21.40;99.90
53599;DHT22;39485;45.702;11.364;2023-08-01T03:44:33;21.40;99.90
53599;DHT22;39485;45.702;11.364;2023-08-01T03:46:59;21.50;99.90
53599;DHT22;39485;45.702;11.364;2023-08-01T03:49:25;21.40;99.90
53599;DHT22;39485;45.702;11.364;2023-08-01T03:51:51;21.50;99.90
53599;DHT22;39485;45.702;11.364;2023-08-01T03:54:16;21.40;99.90
53599;DHT22;39485;45.702;11.364;2023-08-01T03:56:42;21.40;99.90
53599;DHT22;39485;45.702;11.364;2023-08-01T03:59:11;21.40;99.90
53599;DHT22;39485;45.702;11.364;2023-08-01T04:01:36;21.50;99.90
53599;DHT22;39485;45.702;11.364;2023-08-01T04:04:02;21.40;99.90
53599;DHT22;39485;45.702;11.364;2023-08-01T04:06:28;21.40;99.90
53599;DHT22;39485;45.702;11.364;2023-08-01T04:08:53;21.40;99.90
53599;DHT22;39485;45.702;11.364;2023-08-01T04:11:22;21.50;99.90
53599;DHT22;39485;45.702;11.364;2023-08-01T04:13:47;21.40;99.90
53599;DHT22;39485;45.702;11.364;2023-08-01T04:16:13;21.40;99.90
53599;DHT22;39485;45.702;11.364;2023-08-01T04:18:39;21.40;99.90
53599;DHT22;39485;45.702;11.364;2023-08-01T04:21:05;21.40;99.90
53599;DHT22;39485;45.702;11.364;2023-08-01T04:23:32;21.40;99.90
53599;DHT22;39485;45.702;11.364;2023-08-01T04:25:57;21.30;99.90
53599;DHT22;39485;45.702;11.364;2023-08-01T04:28:25;21.30;99.90
53599;DHT22;39485;45.702;11.364;2023-08-01T04:30:51;21.30;99.90
53599;DHT22;39485;45.702;11.364;2023-08-01T04:33:17;21.30;99.90
53599;DHT22;39485;45.702;11.364;2023-08-01T04:35:42;21.30;99.90
53599;DHT22;39485;45.702;11.364;2023-08-01T04:38:08;21.30;99.90
53599;DHT22;39485;45.702;11.364;2023-08-01T04:40:36;21.30;99.90
53599;DHT22;39485;45.702;11.364;2023-08-01T04:43:02;21.30;99.90
53599;DHT22;39485;45.702;11.364;2023-08-01T04:45:28;21.20;99.90
53599;DHT22;39485;45.702;11.364;2023-08-01T04:47:54;21.20;99.90
53599;DHT22;39485;45.702;11.364;2023-08-01T04:50:19;21.20;99.90
53599;DHT22;39485;45.702;11.364;2023-08-01T04:52:45;21.20;99.90
53599;DHT22;39485;45.702;11.364;2023-08-01T04:55:11;21.20;99.90
53599;DHT22;39485;45.702;11.364;2023-08-01T04:57:36;21.10;99.90
53599;DHT22;39485;45.702;11.364;2023-08-01T05:00:03;21.10;99.90
53599;DHT22;39485;45.702;11.364;2023-08-01T05:02:30;21.10;99.90
53599;DHT22;39485;45.702;11.364;2023-08-01T05:04:55;21.10;99.90
53599;DHT22;39485;45.702;11.364;2023-08-01T05:07:21;21.10;99.90
53599;DHT22;39485;45.702;11.364;2023-08-01T05:09:46;21.10;99.90
53599;DHT22;39485;45.702;11.364;2023-08-01T05:12:12;21.10;99.90
53599;DHT22;39485;45.702;11.364;2023-08-01T05:14:38;21.10;99.90
53599;DHT22;39485;45.702;11.364;2023-08-01T05:17:04;21.20;99.90
53599;DHT22;39485;45.702;11.364;2023-08-01T05:19:30;21.20;99.90
53599;DHT22;39485;45.702;11.364;2023-08-01T05:21:55;21.20;99.90
53599;DHT22;39485;45.702;11.364;2023-08-01T05:24:21;21.20;99.90
53599;DHT22;39485;45.702;11.364;2023-08-01T05:26:47;21.20;99.90
53599;DHT22;39485;45.702;11.364;2023-08-01T05:29:13;21.20;99.90
53599;DHT22;39485;45.702;11.364;2023-08-01T05:31:39;21.20;99.90
53599;DHT22;39485;45.702;11.364;2023-08-01T05:34:04;21.20;99.90
53599;DHT22;39485;45.702;11.364;2023-08-01T05:36:30;21.20;99.90
53599;DHT22;39485;45.702;11.364;2023-08-01T05:38:56;21.20;99.90
53599;DHT22;39485;45.702;11.364;2023-08-01T05:41:23;21.10;99.90
53599;DHT22;39485;45.702;11.364;2023-08-01T05:43:49;21.10;99.90
53599;DHT22;39485;45.702;11.364;2023-08-01T05:46:21;21.10;99.90
53599;DHT22;39485;45.702;11.364;2023-08-01T05:48:52;21.10;99.90
53599;DHT22;39485;45.702;11.364;2023-08-01T05:51:20;21.10;99.90
53599;DHT22;39485;45.702;11.364;2023-08-01T05:53:46;21.10;99.90
53599;DHT22;39485;45.702;11.364;2023-08-01T05:56:12;21.10;99.90
53599;DHT22;39485;45.702;11.364;2023-08-01T05:58:37;21.10;99.90
53599;DHT22;39485;45.702;11.364;2023-08-01T06:01:03;21.10;99.90
53599;DHT22;39485;45.702;11.364;2023-08-01T06:03:29;21.10;99.90
53599;DHT22;39485;45.702;11.364;2023-08-01T06:05:55;21.00;99.90
53599;DHT22;39485;45.702;11.364;2023-08-01T06:08:20;21.00;99.90
53599;DHT22;39485;45.702;11.364;2023-08-01T06:10:47;20.90;99.90
53599;DHT22;39485;45.702;11.364;2023-08-01T06:13:12;20.90;99.90
53599;DHT22;39485;45.702;11.364;2023-08-01T06:15:38;20.90;99.90
53599;DHT22;39485;45.702;11.364;2023-08-01T06:18:04;20.80;99.90
53599;DHT22;39485;45.702;11.364;2023-08-01T06:20:36;20.80;99.90
53599;DHT22;39485;45.702;11.364;2023-08-01T06:23:01;20.80;99.90
53599;DHT22;39485;45.702;11.364;2023-08-01T06:25:30;20.80;99.90
53599;DHT22;39485;45.702;11.364;2023-08-01T06:27:55;20.80;99.90
53599;DHT22;39485;45.702;11.364;2023-08-01T06:30:21;20.80;99.90
53599;DHT22;39485;45.702;11.364;2023-08-01T06:32:47;20.80;99.90
53599;DHT22;39485;45.702;11.364;2023-08-01T06:35:12;20.80;99.90
53599;DHT22;39485;45.702;11.364;2023-08-01T06:37:38;20.80;99.90
53599;DHT22;39485;45.702;11.364;2023-08-01T06:40:04;20.90;99.90
53599;DHT22;39485;45.702;11.364;2023-08-01T06:42:33;20.90;99.90
53599;DHT22;39485;45.702;11.364;2023-08-01T06:45:02;20.90;99.90
53599;DHT22;39485;45.702;11.364;2023-08-01T06:47:36;21.00;99.90
53599;DHT22;39485;45.702;11.364;2023-08-01T06:50:02;21.00;99.90
53599;DHT22;39485;45.702;11.364;2023-08-01T06:52:28;21.00;99.90
53599;DHT22;39485;45.702;11.364;2023-08-01T06:54:53;21.00;99.90
53599;DHT22;39485;45.702;11.364;2023-08-01T06:57:19;21.10;99.90
53599;DHT22;39485;45.702;11.364;2023-08-01T06:59:45;21.10;99.90
53599;DHT22;39485;45.702;11.364;2023-08-01T07:02:13;21.10;99.90
53599;DHT22;39485;45.702;11.364;2023-08-01T07:04:40;21.10;99.90
53599;DHT22;39485;45.702;11.364;2023-08-01T07:07:06;21.20;99.90
53599;DHT22;39485;45.702;11.364;2023-08-01T07:09:34;21.20;99.90
53599;DHT22;39485;45.702;11.364;2023-08-01T07:11:59;21.20;99.90
53599;DHT22;39485;45.702;11.364;2023-08-01T07:14:28;21.20;99.90
53599;DHT22;39485;45.702;11.364;2023-08-01T07:16:54;21.20;99.90
53599;DHT22;39485;45.702;11.364;2023-08-01T07:19:19;21.30;99.90
53599;DHT22;39485;45.702;11.364;2023-08-01T07:21:45;21.30;99.90
53599;DHT22;39485;45.702;11.364;2023-08-01T07:24:13;21.30;99.90
53599;DHT22;39485;45.702;11.364;2023-08-01T07:26:39;21.40;99.90
53599;DHT22;39485;45.702;11.364;2023-08-01T07:29:05;21.40;99.90
53599;DHT22;39485;45.702;11.364;2023-08-01T07:31:33;21.50;99.90
53599;DHT22;39485;45.702;11.364;2023-08-01T07:33:59;21.50;99.90
53599;DHT22;39485;45.702;11.364;2023-08-01T07:36:25;21.60;99.90
53599;DHT22;39485;45.702;11.364;2023-08-01T07:38:50;21.60;99.90
53599;DHT22;39485;45.702;11.364;2023-08-01T07:41:16;21.60;99.90
53599;DHT22;39485;45.702;11.364;2023-08-01T07:43:42;21.70;99.90
53599;DHT22;39485;45.702;11.364;2023-08-01T07:46:07;21.70;99.90
53599;DHT22;39485;45.702;11.364;2023-08-01T07:48:35;21.70;99.90
53599;DHT22;39485;45.702;11.364;2023-08-01T07:51:00;21.80;99.90
53599;DHT22;39485;45.702;11.364;2023-08-01T07:53:27;21.80;99.90
53599;DHT22;39485;45.702;11.364;2023-08-01T07:55:52;21.80;99.90
53599;DHT22;39485;45.702;11.364;2023-08-01T07:58:19;21.90;99.90
53599;DHT22;39485;45.702;11.364;2023-08-01T08:00:44;21.90;99.90
53599;DHT22;39485;45.702;11.364;2023-08-01T08:03:10;21.90;99.90
53599;DHT22;39485;45.702;11.364;2023-08-01T08:05:36;22.00;99.90
53599;DHT22;39485;45.702;11.364;2023-08-01T08:08:06;22.00;99.90
53599;DHT22;39485;45.702;11.364;2023-08-01T08:10:32;22.10;99.90
53599;DHT22;39485;45.702;11.364;2023-08-01T08:12:57;22.10;99.90
53599;DHT22;39485;45.702;11.364;2023-08-01T08:15:23;22.20;99.90
53599;DHT22;39485;45.702;11.364;2023-08-01T08:17:50;22.30;99.90
53599;DHT22;39485;45.702;11.364;2023-08-01T08:20:15;22.30;99.90
53599;DHT22;39485;45.702;11.364;2023-08-01T08:22:41;22.30;99.90
53599;DHT22;39485;45.702;11.364;2023-08-01T08:25:07;22.30;99.90
53599;DHT22;39485;45.702;11.364;2023-08-01T08:27:33;22.30;99.90
53599;DHT22;39485;45.702;11.364;2023-08-01T08:29:58;22.40;99.90
53599;DHT22;39485;45.702;11.364;2023-08-01T08:32:24;22.40;99.90
53599;DHT22;39485;45.702;11.364;2023-08-01T08:34:49;22.50;99.90
53599;DHT22;39485;45.702;11.364;2023-08-01T08:37:15;22.70;99.90
53599;DHT22;39485;45.702;11.364;2023-08-01T08:39:41;22.80;99.90
53599;DHT22;39485;45.702;11.364;2023-08-01T08:42:06;22.80;99.90
53599;DHT22;39485;45.702;11.364;2023-08-01T08:44:35;22.90;99.90
53599;DHT22;39485;45.702;11.364;2023-08-01T08:47:08;23.00;99.90
53599;DHT22;39485;45.702;11.364;2023-08-01T08:49:35;23.10;99.90
53599;DHT22;39485;45.702;11.364;2023-08-01T08:52:02;23.20;99.90
53599;DHT22;39485;45.702;11.364;2023-08-01T08:54:29;23.30;99.90
53599;DHT22;39485;45.702;11.364;2023-08-01T08:56:55;23.40;99.90
53599;DHT22;39485;45.702;11.364;2023-08-01T08:59:21;23.40;99.90
53599;DHT22;39485;45.702;11.364;2023-08-01T09:01:48;23.60;99.90
53599;DHT22;39485;45.702;11.364;2023-08-01T09:04:15;23.60;99.90
53599;DHT22;39485;45.702;11.364;2023-08-01T09:06:45;23.80;99.90
53599;DHT22;39485;45.702;11.364;2023-08-01T09:09:13;23.70;99.90
53599;DHT22;39485;45.702;11.364;2023-08-01T09:11:49;23.70;99.90
53599;DHT22;39485;45.702;11.364;2023-08-01T09:14:16;23.80;99.90
53599;DHT22;39485;45.702;11.364;2023-08-01T09:16:42;23.90;99.90
53599;DHT22;39485;45.702;11.364;2023-08-01T09:19:08;24.00;99.90
53599;DHT22;39485;45.702;11.364;2023-08-01T09:21:35;24.10;99.90
53599;DHT22;39485;45.702;11.364;2023-08-01T09:24:17;24.20;99.90
53599;DHT22;39485;45.702;11.364;2023-08-01T09:26:45;24.40;99.90
53599;DHT22;39485;45.702;11.364;2023-08-01T09:29:11;24.50;99.90
53599;DHT22;39485;45.702;11.364;2023-08-01T09:31:41;24.60;99.90
53599;DHT22;39485;45.702;11.364;2023-08-01T09:34:24;24.60;99.90
53599;DHT22;39485;45.702;11.364;2023-08-01T09:36:50;24.80;99.90
53599;DHT22;39485;45.702;11.364;2023-08-01T09:39:18;24.90;99.90
53599;DHT22;39485;45.702;11.364;2023-08-01T09:41:45;24.90;99.90
53599;DHT22;39485;45.702;11.364;2023-08-01T09:44:17;24.90;99.90
53599;DHT22;39485;45.702;11.364;2023-08-01T09:46:42;24.90;99.90
53599;DHT22;39485;45.702;11.364;2023-08-01T09:49:10;24.90;99.90
53599;DHT22;39485;45.702;11.364;2023-08-01T09:51:47;24.90;99.90
53599;DHT22;39485;45.702;11.364;2023-08-01T09:54:15;25.00;99.90
53599;DHT22;39485;45.702;11.364;2023-08-01T09:56:44;25.10;99.90
53599;DHT22;39485;45.702;11.364;2023-08-01T09:59:11;25.10;99.90
53599;DHT22;39485;45.702;11.364;2023-08-01T10:01:38;25.10;99.90
53599;DHT22;39485;45.702;11.364;2023-08-01T10:04:07;25.20;99.90
53599;DHT22;39485;45.702;11.364;2023-08-01T10:06:36;25.20;99.90
53599;DHT22;39485;45.702;11.364;2023-08-01T10:09:02;25.30;99.90
53599;DHT22;39485;45.702;11.364;2023-08-01T10:11:33;25.20;99.90
53599;DHT22;39485;45.702;11.364;2023-08-01T10:14:00;25.30;99.90
53599;DHT22;39485;45.702;11.364;2023-08-01T10:16:26;25.40;99.90
53599;DHT22;39485;45.702;11.364;2023-08-01T10:18:52;25.40;99.90
53599;DHT22;39485;45.702;11.364;2023-08-01T10:21:19;25.30;99.90
53599;DHT22;39485;45.702;11.364;2023-08-01T10:23:47;25.30;99.90
53599;DHT22;39485;45.702;11.364;2023-08-01T10:26:13;25.20;99.90
53599;DHT22;39485;45.702;11.364;2023-08-01T10:28:41;25.10;99.90
53599;DHT22;39485;45.702;11.364;2023-08-01T10:31:14;25.00;99.90
53599;DHT22;39485;45.702;11.364;2023-08-01T10:33:42;24.90;99.90
53599;DHT22;39485;45.702;11.364;2023-08-01T10:36:22;24.90;99.90
53599;DHT22;39485;45.702;11.364;2023-08-01T10:38:53;24.80;99.90
53599;DHT22;39485;45.702;11.364;2023-08-01T10:41:27;24.80;99.90
53599;DHT22;39485;45.702;11.364;2023-08-01T10:44:13;24.80;99.90
53599;DHT22;39485;45.702;11.364;2023-08-01T10:49:15;24.80;99.90
53599;DHT22;39485;45.702;11.364;2023-08-01T10:51:41;24.80;99.90
53599;DHT22;39485;45.702;11.364;2023-08-01T10:54:17;24.80;99.90
53599;DHT22;39485;45.702;11.364;2023-08-01T10:56:45;24.90;99.90
53599;DHT22;39485;45.702;11.364;2023-08-01T10:59:13;24.90;99.90
53599;DHT22;39485;45.702;11.364;2023-08-01T11:01:49;25.00;99.90
53599;DHT22;39485;45.702;11.364;2023-08-01T11:04:19;25.00;99.90
53599;DHT22;39485;45.702;11.364;2023-08-01T11:06:54;25.10;99.90
53599;DHT22;39485;45.702;11.364;2023-08-01T11:09:24;25.00;99.90
53599;DHT22;39485;45.702;11.364;2023-08-01T11:12:00;25.00;99.90
53599;DHT22;39485;45.702;11.364;2023-08-01T11:14:27;25.00;99.90
53599;DHT22;39485;45.702;11.364;2023-08-01T11:16:57;25.10;99.90
53599;DHT22;39485;45.702;11.364;2023-08-01T11:19:27;25.20;99.90
53599;DHT22;39485;45.702;11.364;2023-08-01T11:21:53;25.20;99.90
53599;DHT22;39485;45.702;11.364;2023-08-01T11:24:24;25.30;99.90
53599;DHT22;39485;45.702;11.364;2023-08-01T11:26:51;25.40;99.90
53599;DHT22;39485;45.702;11.364;2023-08-01T11:29:18;25.50;99.90
53599;DHT22;39485;45.702;11.364;2023-08-01T11:31:56;25.50;99.90
53599;DHT22;39485;45.702;11.364;2023-08-01T11:34:23;25.60;99.90
53599;DHT22;39485;45.702;11.364;2023-08-01T11:36:49;25.60;99.90
53599;DHT22;39485;45.702;11.364;2023-08-01T11:39:15;25.60;99.90
53599;DHT22;39485;45.702;11.364;2023-08-01T11:41:42;25.50;99.90
53599;DHT22;39485;45.702;11.364;2023-08-01T11:44:08;25.40;99.90
53599;DHT22;39485;45.702;11.364;2023-08-01T11:46:37;25.40;99.90
53599;DHT22;39485;45.702;11.364;2023-08-01T11:49:04;25.30;99.90
53599;DHT22;39485;45.702;11.364;2023-08-01T11:51:30;25.20;99.90
53599;DHT22;39485;45.702;11.364;2023-08-01T11:54:03;25.20;99.90
53599;DHT22;39485;45.702;11.364;2023-08-01T11:56:30;25.20;99.90
53599;DHT22;39485;45.702;11.364;2023-08-01T11:58:56;25.10;99.90
53599;DHT22;39485;45.702;11.364;2023-08-01T12:01:22;25.10;99.90
53599;DHT22;39485;45.702;11.364;2023-08-01T12:03:53;25.10;99.90
53599;DHT22;39485;45.702;11.364;2023-08-01T12:06:22;25.10;99.90
53599;DHT22;39485;45.702;11.364;2023-08-01T12:08:50;25.10;99.90
53599;DHT22;39485;45.702;11.364;2023-08-01T12:11:20;25.00;99.90
53599;DHT22;39485;45.702;11.364;2023-08-01T12:13:47;24.90;99.90
53599;DHT22;39485;45.702;11.364;2023-08-01T12:16:14;24.90;99.90
53599;DHT22;39485;45.702;11.364;2023-08-01T12:18:45;24.90;99.90
53599;DHT22;39485;45.702;11.364;2023-08-01T12:21:12;24.90;99.90
53599;DHT22;39485;45.702;11.364;2023-08-01T12:23:39;24.90;99.90
53599;DHT22;39485;45.702;11.364;2023-08-01T12:26:06;24.90;99.90
53599;DHT22;39485;45.702;11.364;2023-08-01T12:28:32;24.90;99.90
53599;DHT22;39485;45.702;11.364;2023-08-01T12:30:58;24.90;99.90
53599;DHT22;39485;45.702;11.364;2023-08-01T12:33:24;24.90;99.90
53599;DHT22;39485;45.702;11.364;2023-08-01T12:35:50;24.90;99.90
53599;DHT22;39485;45.702;11.364;2023-08-01T12:38:16;24.90;99.90
53599;DHT22;39485;45.702;11.364;2023-08-01T12:40:41;24.90;99.90
53599;DHT22;39485;45.702;11.364;2023-08-01T12:43:07;25.00;99.90
53599;DHT22;39485;45.702;11.364;2023-08-01T12:45:33;25.10;99.90
53599;DHT22;39485;45.702;11.364;2023-08-01T12:47:58;25.10;99.90
53599;DHT22;39485;45.702;11.364;2023-08-01T12:50:24;25.10;99.90
53599;DHT22;39485;45.702;11.364;2023-08-01T12:52:50;25.20;99.90
53599;DHT22;39485;45.702;11.364;2023-08-01T12:55:15;25.20;99.90
53599;DHT22;39485;45.702;11.364;2023-08-01T12:57:41;25.20;99.90
53599;DHT22;39485;45.702;11.364;2023-08-01T13:00:09;25.30;99.90
53599;DHT22;39485;45.702;11.364;2023-08-01T13:02:36;25.30;99.90
53599;DHT22;39485;45.702;11.364;2023-08-01T13:05:03;25.30;99.90
53599;DHT22;39485;45.702;11.364;2023-08-01T13:07:29;25.30;99.90
53599;DHT22;39485;45.702;11.364;2023-08-01T13:10:00;25.30;99.90
53599;DHT22;39485;45.702;11.364;2023-08-01T13:12:26;25.30;99.90
53599;DHT22;39485;45.702;11.364;2023-08-01T13:14:52;25.40;99.90
53599;DHT22;39485;45.702;11.364;2023-08-01T13:17:17;25.30;99.90
53599;DHT22;39485;45.702;11.364;2023-08-01T13:20:14;25.30;99.90
53599;DHT22;39485;45.702;11.364;2023-08-01T13:22:40;25.20;99.90
53599;DHT22;39485;45.702;11.364;2023-08-01T13:25:06;25.20;99.90
53599;DHT22;39485;45.702;11.364;2023-08-01T13:27:34;25.20;99.90
53599;DHT22;39485;45.702;11.364;2023-08-01T15:46:22;26.10;99.90
53599;DHT22;39485;45.702;11.364;2023-08-01T15:48:48;26.20;99.90
53599;DHT22;39485;45.702;11.364;2023-08-01T15:51:15;26.20;99.90
53599;DHT22;39485;45.702;11.364;2023-08-01T15:53:41;26.20;99.90
53599;DHT22;39485;45.702;11.364;2023-08-01T15:56:08;26.20;99.90
53599;DHT22;39485;45.702;11.364;2023-08-01T15:58:34;26.20;99.90
53599;DHT22;39485;45.702;11.364;2023-08-01T16:01:00;26.20;99.90
53599;DHT22;39485;45.702;11.364;2023-08-01T16:03:27;26.30;99.90
53599;DHT22;39485;45.702;11.364;2023-08-01T16:05:54;26.30;99.90
53599;DHT22;39485;45.702;11.364;2023-08-01T16:08:20;26.30;99.90
53599;DHT22;39485;45.702;11.364;2023-08-01T16:10:46;26.30;99.90
53599;DHT22;39485;45.702;11.364;2023-08-01T16:13:12;26.30;99.90
53599;DHT22;39485;45.702;11.364;2023-08-01T16:15:39;26.30;99.90
53599;DHT22;39485;45.702;11.364;2023-08-01T16:18:06;26.30;99.90
53599;DHT22;39485;45.702;11.364;2023-08-01T16:20:32;26.30;99.90
53599;DHT22;39485;45.702;11.364;2023-08-01T16:22:58;26.30;99.90
53599;DHT22;39485;45.702;11.364;2023-08-01T16:25:24;26.30;99.90
53599;DHT22;39485;45.702;11.364;2023-08-01T16:27:51;26.20;99.90
53599;DHT22;39485;45.702;11.364;2023-08-01T16:30:17;26.20;99.90
53599;DHT22;39485;45.702;11.364;2023-08-01T16:32:43;26.10;99.90
53599;DHT22;39485;45.702;11.364;2023-08-01T16:35:09;26.10;99.90
53599;DHT22;39485;45.702;11.364;2023-08-01T16:37:35;26.10;99.90
53599;DHT22;39485;45.702;11.364;2023-08-01T16:40:00;26.10;99.90
53599;DHT22;39485;45.702;11.364;2023-08-01T16:42:26;26.10;99.90
53599;DHT22;39485;45.702;11.364;2023-08-01T16:44:53;26.00;99.90
53599;DHT22;39485;45.702;11.364;2023-08-01T16:47:18;26.00;99.90
53599;DHT22;39485;45.702;11.364;2023-08-01T16:49:48;26.00;99.90
53599;DHT22;39485;45.702;11.364;2023-08-01T16:52:18;26.00;99.90
53599;DHT22;39485;45.702;11.364;2023-08-01T16:54:44;26.00;99.90
53599;DHT22;39485;45.702;11.364;2023-08-01T16:57:10;26.00;99.90
53599;DHT22;39485;45.702;11.364;2023-08-01T16:59:38;26.00;99.90
53599;DHT22;39485;45.702;11.364;2023-08-01T17:02:06;26.00;99.90
53599;DHT22;39485;45.702;11.364;2023-08-01T17:04:32;26.00;99.90
53599;DHT22;39485;45.702;11.364;2023-08-01T17:06:58;26.00;99.90
53599;DHT22;39485;45.702;11.364;2023-08-01T17:09:27;26.10;99.90
53599;DHT22;39485;45.702;11.364;2023-08-01T17:11:53;26.10;99.90
53599;DHT22;39485;45.702;11.364;2023-08-01T17:14:19;26.10;99.90
53599;DHT22;39485;45.702;11.364;2023-08-01T17:16:45;26.10;99.90
53599;DHT22;39485;45.702;11.364;2023-08-01T17:19:15;26.10;99.90
53599;DHT22;39485;45.702;11.364;2023-08-01T17:21:41;26.20;99.90
53599;DHT22;39485;45.702;11.364;2023-08-01T17:24:08;26.40;99.90
53599;DHT22;39485;45.702;11.364;2023-08-01T17:26:35;26.50;99.90
53599;DHT22;39485;45.702;11.364;2023-08-01T17:29:02;26.50;99.90
53599;DHT22;39485;45.702;11.364;2023-08-01T17:31:28;26.50;99.90
53599;DHT22;39485;45.702;11.364;2023-08-01T17:33:57;26.50;99.90